Latest Weather Observations for Rabbit Flat

IDD60801

Issued at 7:01 pm CST Wednesday 4 May 2016 (issued every 30 minutes, with the page automatically refreshed every 10 minutes)

About weather observations | Map of weather stations | Latest weather observations for NT | Other Formats
Station Details ID: 015666 Name: RABBIT FLAT Lat: -20.18 Lon: 130.01 Height: 340.0 m
Data from the previous 72 hours. | See also: Recent months at Rabbit Flat
Date/Time
CST
Temp
°C
App
Temp
°C
Dew
Point
Rel
Hum
%
Delta-T
°C
Wind Press
QNH
hPa
Press
MSL
hPa
Rain
since 9 am
mm
Dir
 
Spd
km/h
Gust
km/h
Spd
kts
Gust
kts
04/07:00pm 28.3 - 15.8 46 7.8 - - - - - 1013.6 - 0.0
04/06:30pm 29.1 - 15.6 44 8.4 - - - - - 1013.2 - 0.0
04/06:00pm 30.2 - 15.3 40 9.3 - - - - - 1012.8 1011.6 0.0
04/05:30pm 31.2 - 16.2 40 9.5 - - - - - 1012.5 - 0.0
04/05:00pm 31.5 - 15.6 38 10.0 - - - - - 1012.5 - 0.0
04/04:30pm 32.0 - 15.5 37 10.4 - - - - - 1012.6 - 0.0
04/04:00pm 31.6 - 15.7 38 10.0 - - - - - 1012.6 - 0.0
04/03:30pm 31.5 - 16.0 39 9.8 - - - - - 1012.9 - 0.0
04/03:00pm 31.7 - 16.7 40 9.6 - - - - - 1013.3 1012.1 0.0
04/02:30pm 31.9 - 16.9 40 9.6 - - - - - 1013.5 - 0.0
04/02:00pm 31.9 - 17.5 42 9.3 - - - - - 1013.9 - 0.0
04/01:30pm 31.0 - 17.3 43 8.8 - - - - - 1014.5 - 0.0
04/01:00pm 31.0 - 17.7 45 8.6 - - - - - 1015.1 - 0.0
04/12:30pm 30.5 - 18.2 47 8.0 - - - - - 1015.5 - 0.0
04/12:00pm 29.3 - 18.5 52 7.0 - - - - - 1016.3 1015.1 0.0
04/11:30am 29.7 - 19.2 53 6.9 - - - - - 1016.8 - 0.0
04/11:00am 28.5 - 18.8 55 6.3 - - - - - 1017.2 - 0.0
04/10:30am 28.1 - 20.3 62 5.2 - - - - - 1017.4 - 0.0
04/10:00am 26.3 - 20.6 71 3.8 - - - - - 1017.4 - 0.0
04/09:30am 26.3 - 21.1 73 3.5 - - - - - 1017.6 - 0.0
04/09:00am 25.6 - 21.6 78 2.7 - - - - - 1017.2 1016.1 1.0
04/08:30am 24.2 - 21.8 86 1.6 - - - - - 1017.0 - 1.0
04/08:00am 22.6 - 21.9 96 0.5 - - - - - 1016.7 - 1.0
04/07:30am 21.7 - 21.2 97 0.3 - - - - - 1016.5 - 1.0
04/07:00am 21.9 - 21.3 96 0.4 - - - - - 1016.2 - 1.0
04/06:30am 22.1 - 21.5 96 0.4 - - - - - 1015.6 - 1.0
04/06:00am 22.6 - 21.7 95 0.6 - - - - - 1015.4 1014.3 1.0
04/05:30am 22.7 - 21.7 94 0.7 - - - - - 1015.1 - 1.0
04/05:00am 22.8 - 21.4 92 0.9 - - - - - 1015.1 - 1.0
04/04:30am 22.9 - 21.4 91 1.0 - - - - - 1015.3 - 1.0
04/04:00am 22.9 - 21.4 91 1.0 - - - - - 1015.3 - 1.0
04/03:30am 23.3 - 21.2 88 1.4 - - - - - 1015.5 - 1.0
04/03:00am 23.3 - 21.2 88 1.4 - - - - - 1015.4 1014.3 1.0
04/02:30am 23.4 - 21.1 87 1.5 - - - - - 1015.2 - 1.0
04/02:00am 23.1 - 21.9 93 0.8 - - - - - 1015.3 - 1.0
04/01:30am 23.2 - 21.9 92 0.9 - - - - - 1015.2 - 1.0
04/01:00am 23.3 - 21.8 91 1.0 - - - - - 1015.7 - 1.0
04/12:30am 23.2 - 21.7 91 1.0 - - - - - 1015.9 - 1.0
04/12:00am 23.4 - 21.5 89 1.3 - - - - - 1016.0 1014.8 1.0
 
Date/Time
CST
Temp
°C
App
Temp
°C
Dew
Point
Rel
Hum
%
Delta-T
°C
Wind Press
QNH
hPa
Press
MSL
hPa
Rain
since 9 am
mm
Dir
 
Spd
km/h
Gust
km/h
Spd
kts
Gust
kts
03/11:30pm 23.5 - 21.2 87 1.5 - - - - - 1016.2 - 1.0
03/11:00pm 23.7 - 20.8 84 1.9 - - - - - 1015.9 - 1.0
03/10:30pm 23.6 - 20.7 84 1.9 - - - - - 1015.7 - 1.0
03/10:00pm 23.7 - 20.7 83 2.0 - - - - - 1015.9 - 1.0
03/09:30pm 23.6 - 21.3 87 1.5 - - - - - 1016.3 - 1.0
03/09:00pm 23.4 - 20.7 85 1.8 - - - - - 1016.2 1015.0 1.0
03/08:30pm 24.9 - 20.5 76 2.9 - - - - - 1016.7 - 0.2
03/08:00pm 25.6 - 18.3 64 4.7 - - - - - 1015.5 - 0.0
03/07:30pm 25.2 - 18.3 65 4.4 - - - - - 1014.9 - 0.0
03/07:00pm 25.2 - 17.6 62 4.8 - - - - - 1014.6 - 0.0
03/06:30pm 25.0 - 18.3 66 4.3 - - - - - 1014.2 - 0.0
03/06:00pm 27.0 - 17.8 57 5.9 - - - - - 1013.8 1012.6 0.0
03/05:30pm 30.5 - 18.8 49 7.7 - - - - - 1013.0 - 0.0
03/05:00pm 31.1 - 18.6 47 8.2 - - - - - 1012.5 - 0.0
03/04:30pm 31.6 - 18.5 45 8.6 - - - - - 1012.5 - 0.0
03/04:00pm 31.1 - 18.2 46 8.4 - - - - - 1012.6 - 0.0
03/03:30pm 31.2 - 18.2 46 8.5 - - - - - 1013.0 - 0.0
03/03:00pm 31.1 - 18.4 46 8.3 - - - - - 1013.3 1012.1 0.0
03/02:30pm 31.5 - 18.3 45 8.6 - - - - - 1013.7 - 0.0
03/02:00pm 31.4 - 18.0 44 8.7 - - - - - 1014.1 - 0.0
03/01:30pm 30.8 - 19.1 49 7.7 - - - - - 1014.7 - 0.0
03/01:00pm 30.6 - 18.3 47 8.0 - - - - - 1015.1 - 0.0
03/12:30pm 31.1 - 19.3 49 7.8 - - - - - 1015.5 - 0.0
03/12:00pm 29.8 - 20.0 55 6.5 - - - - - 1015.9 1014.7 0.0
03/11:30am 29.1 - 18.8 53 6.7 - - - - - 1016.5 - 0.0
03/11:00am 29.4 - 19.4 55 6.6 - - - - - 1016.9 - 0.0
03/10:30am 28.1 - 20.3 62 5.2 - - - - - 1017.2 - 0.0
03/10:00am 26.7 - 20.5 69 4.1 - - - - - 1017.2 - 0.0
03/09:30am 26.1 - 20.5 71 3.7 - - - - - 1017.2 - 0.0
03/09:00am 25.6 - 20.5 73 3.4 - - - - - 1016.8 1015.7 0.4
03/08:30am 23.3 - 20.4 84 1.9 - - - - - 1016.3 - 0.4
03/08:00am 22.6 - 20.6 88 1.3 - - - - - 1016.2 - 0.4
03/07:30am 22.2 - 20.5 90 1.1 - - - - - 1016.0 - 0.4
03/07:00am 22.3 - 20.3 88 1.3 - - - - - 1015.5 - 0.4
03/06:30am 22.4 - 20.3 88 1.4 - - - - - 1015.2 - 0.4
03/06:00am 22.4 - 19.8 85 1.7 - - - - - 1014.8 1013.7 0.4
03/05:30am 22.8 - 19.4 81 2.2 - - - - - 1014.6 - 0.4
03/05:00am 23.1 - 19.2 79 2.5 - - - - - 1014.1 - 0.4
03/04:30am 23.0 - 19.4 80 2.3 - - - - - 1014.4 - 0.4
03/04:00am 23.1 - 19.4 79 2.4 - - - - - 1014.5 - 0.4
03/03:30am 23.1 - 19.2 79 2.5 - - - - - 1014.8 - 0.4
03/03:00am 23.1 - 19.7 81 2.2 - - - - - 1015.1 1014.0 0.4
03/02:30am 23.2 - 20.0 82 2.1 - - - - - 1016.0 - 0.4
03/02:00am 23.4 - 19.7 80 2.4 - - - - - 1016.3 - 0.4
03/01:30am 23.8 - 20.0 79 2.5 - - - - - 1016.4 - 0.4
03/01:00am 23.7 - 20.0 80 2.4 - - - - - 1015.9 - 0.4
03/12:30am 23.8 - 20.0 79 2.5 - - - - - 1015.9 - 0.4
03/12:00am 23.9 - 19.8 78 2.7 - - - - - 1015.6 1014.5 0.4
 
Date/Time
CST
Temp
°C
App
Temp
°C
Dew
Point
Rel
Hum
%
Delta-T
°C
Wind Press
QNH
hPa
Press
MSL
hPa
Rain
since 9 am
mm
Dir
 
Spd
km/h
Gust
km/h
Spd
kts
Gust
kts
02/11:30pm 23.9 - 19.9 78 2.6 - - - - - 1016.0 - 0.4
02/11:00pm 24.1 - 19.8 77 2.8 - - - - - 1016.1 - 0.4
02/10:30pm 24.2 - 20.9 82 2.2 - - - - - 1016.2 - 0.4
02/10:00pm 24.0 - 21.1 84 1.9 - - - - - 1016.3 - 0.4
02/09:30pm 25.8 - 19.4 67 4.2 - - - - - 1015.7 - 0.2
02/09:00pm 27.1 - 19.0 61 5.3 - - - - - 1014.7 1013.6 0.2
02/08:30pm 26.9 - 21.2 71 3.8 - - - - - 1014.5 - 0.2
02/08:00pm 27.6 - 19.4 61 5.4 - - - - - 1013.4 - 0.2
02/07:30pm 27.5 - 19.2 60 5.4 - - - - - 1012.9 - 0.2
02/07:00pm 27.8 - 20.3 63 5.0 - - - - - 1012.8 - 0.2
02/06:30pm 29.0 - 18.2 52 7.0 - - - - - 1012.4 - 0.2
02/06:00pm 30.5 - 16.1 41 9.1 - - - - - 1012.2 1011.1 0.2
02/05:30pm 30.6 - 16.8 43 8.8 - - - - - 1012.1 - 0.2
02/05:00pm 31.2 - 17.0 42 9.1 - - - - - 1012.2 - 0.2
02/04:30pm 32.0 - 18.2 43 9.0 - - - - - 1011.8 - 0.2
02/04:00pm 32.1 - 19.3 46 8.5 - - - - - 1011.5 - 0.2
02/03:30pm 34.5 - 15.6 32 12.0 - - - - - 1011.2 - 0.2
02/03:00pm 34.8 - 16.1 32 12.0 - - - - - 1011.3 1010.2 0.2
02/02:30pm 34.7 - 16.7 34 11.6 - - - - - 1011.8 - 0.2
02/02:00pm 31.6 - 20.6 52 7.4 - - - - - 1012.2 - 0.2
02/01:30pm 30.6 - 19.2 50 7.5 - - - - - 1012.8 - 0.0
02/01:00pm 35.3 - 16.5 32 12.1 - - - - - 1013.1 - 0.0
02/12:30pm 34.7 - 16.5 33 11.7 - - - - - 1013.6 - 0.0
02/12:00pm 34.1 - 17.1 36 11.0 - - - - - 1014.1 1013.0 0.0
02/11:30am 34.5 - 16.4 34 11.6 - - - - - 1014.6 - 0.0
02/11:00am 33.2 - 16.3 36 10.8 - - - - - 1015.0 - 0.0
02/10:30am 33.7 - 16.3 35 11.1 - - - - - 1015.2 - 0.0
02/10:00am 32.0 - 13.9 33 11.1 - - - - - 1015.3 - 0.0
02/09:30am 30.2 - 12.9 34 10.4 - - - - - 1015.1 - 0.0
02/09:00am 28.4 - 12.5 37 9.4 - - - - - 1014.9 1013.8 0.0
02/08:30am 27.3 - 12.6 40 8.7 - - - - - 1014.6 - 0.0
02/08:00am 25.9 - 12.4 43 7.9 - - - - - 1014.5 - 0.0
02/07:30am 25.1 - 12.2 44 7.5 - - - - - 1014.1 - 0.0
02/07:00am 25.1 - 13.7 49 6.8 - - - - - 1013.7 - 0.0
02/06:30am 25.3 - 13.3 47 7.1 - - - - - 1013.3 - 0.0
02/06:00am 25.3 - 13.3 47 7.1 - - - - - 1013.1 1011.9 0.0
02/05:30am 25.4 - 12.2 43 7.7 - - - - - 1012.8 - 0.0
02/05:00am 25.6 - 12.7 44 7.6 - - - - - 1012.6 - 0.0
02/04:30am 26.9 - 15.6 50 7.0 - - - - - 1012.5 - 0.0
02/04:00am 27.1 - 17.0 54 6.4 - - - - - 1012.4 - 0.0
02/03:30am 27.3 - 16.9 53 6.6 - - - - - 1012.5 - 0.0
02/03:00am 26.6 - 17.1 56 6.0 - - - - - 1012.5 1011.4 0.0
02/02:30am 27.8 - 16.7 50 7.0 - - - - - 1012.5 - 0.0
02/02:00am 28.2 - 16.8 50 7.2 - - - - - 1012.9 - 0.0
02/01:30am 28.7 - 16.7 48 7.6 - - - - - 1013.0 - 0.0
02/01:00am 29.5 - 16.2 44 8.4 - - - - - 1013.0 - 0.0
02/12:30am 29.5 - 15.6 43 8.7 - - - - - 1013.3 - 0.0
02/12:00am 29.9 - 15.3 41 9.1 - - - - - 1013.6 1012.4 0.0
 
Date/Time
CST
Temp
°C
App
Temp
°C
Dew
Point
Rel
Hum
%
Delta-T
°C
Wind Press
QNH
hPa
Press
MSL
hPa
Rain
since 9 am
mm
Dir
 
Spd
km/h
Gust
km/h
Spd
kts
Gust
kts
01/11:30pm 30.7 - 14.5 37 10.0 - - - - - 1013.8 - 0.0
01/11:00pm 32.1 - 14.1 33 11.1 - - - - - 1013.4 - 0.0
01/10:30pm 29.9 - 15.9 42 8.8 - - - - - 1013.4 - 0.0
01/10:00pm 28.2 - 13.4 40 8.9 - - - - - 1013.3 - 0.0
01/09:30pm 28.6 - 13.3 39 9.2 - - - - - 1013.2 - 0.0
01/09:00pm 29.8 - 13.7 37 9.8 - - - - - 1013.1 1011.9 0.0
01/08:30pm 31.4 - 15.5 38 10.0 - - - - - 1012.8 - 0.0
01/08:00pm 31.9 - 12.9 31 11.5 - - - - - 1012.4 - 0.0
01/07:30pm 32.0 - 12.6 30 11.7 - - - - - 1012.1 - 0.0

Other Formats:

Comma delimited format used in spreadsheet applications
http://www.bom.gov.au/fwo/IDD60801/IDD60801.95322.axf

JavaScript Object Notation format (JSON) in row-major order
http://www.bom.gov.au/fwo/IDD60801/IDD60801.95322.json